sensor_id;sensor_type;location;lat;lon;timestamp;P1;durP1;ratioP1;P2;durP2;ratioP2
17141;SDS011;32805;53.556;9.944;2023-05-28T00:01:46;13.05;;;5.25;;
17141;SDS011;32805;53.556;9.944;2023-05-28T00:04:14;13.45;;;5.05;;
17141;SDS011;32805;53.556;9.944;2023-05-28T00:06:42;12.73;;;4.68;;
17141;SDS011;32805;53.556;9.944;2023-05-28T00:09:10;14.63;;;5.13;;
17141;SDS011;32805;53.556;9.944;2023-05-28T00:11:38;9.73;;;4.53;;
17141;SDS011;32805;53.556;9.944;2023-05-28T00:14:06;11.55;;;5.38;;
17141;SDS011;32805;53.556;9.944;2023-05-28T00:16:34;11.80;;;5.00;;
17141;SDS011;32805;53.556;9.944;2023-05-28T00:19:04;11.05;;;4.85;;
17141;SDS011;32805;53.556;9.944;2023-05-28T00:21:32;12.18;;;5.43;;
17141;SDS011;32805;53.556;9.944;2023-05-28T00:24:01;14.60;;;4.93;;
17141;SDS011;32805;53.556;9.944;2023-05-28T00:26:29;12.48;;;4.15;;
17141;SDS011;32805;53.556;9.944;2023-05-28T00:28:57;10.63;;;4.65;;
17141;SDS011;32805;53.556;9.944;2023-05-28T00:31:25;10.13;;;4.30;;
17141;SDS011;32805;53.556;9.944;2023-05-28T00:33:53;14.20;;;5.22;;
17141;SDS011;32805;53.556;9.944;2023-05-28T00:36:24;13.52;;;5.22;;
17141;SDS011;32805;53.556;9.944;2023-05-28T00:38:51;11.55;;;4.75;;
17141;SDS011;32805;53.556;9.944;2023-05-28T00:41:19;9.80;;;4.15;;
17141;SDS011;32805;53.556;9.944;2023-05-28T00:43:48;13.90;;;4.90;;
17141;SDS011;32805;53.556;9.944;2023-05-28T00:46:17;10.13;;;4.82;;
17141;SDS011;32805;53.556;9.944;2023-05-28T00:48:45;9.65;;;4.43;;
17141;SDS011;32805;53.556;9.944;2023-05-28T00:51:13;10.75;;;4.32;;
17141;SDS011;32805;53.556;9.944;2023-05-28T00:53:43;17.23;;;5.10;;
17141;SDS011;32805;53.556;9.944;2023-05-28T00:56:11;11.18;;;4.38;;
17141;SDS011;32805;53.556;9.944;2023-05-28T00:58:39;9.82;;;4.35;;
17141;SDS011;32805;53.556;9.944;2023-05-28T01:01:07;14.57;;;4.78;;
17141;SDS011;32805;53.556;9.944;2023-05-28T01:03:36;14.63;;;5.18;;
17141;SDS011;32805;53.556;9.944;2023-05-28T01:06:05;12.57;;;4.63;;
17141;SDS011;32805;53.556;9.944;2023-05-28T01:08:35;11.20;;;4.95;;
17141;SDS011;32805;53.556;9.944;2023-05-28T01:11:05;11.18;;;4.90;;
17141;SDS011;32805;53.556;9.944;2023-05-28T01:13:38;9.77;;;4.85;;
17141;SDS011;32805;53.556;9.944;2023-05-28T01:16:08;12.90;;;4.50;;
17141;SDS011;32805;53.556;9.944;2023-05-28T01:18:36;12.82;;;5.43;;
17141;SDS011;32805;53.556;9.944;2023-05-28T01:21:06;15.65;;;5.25;;
17141;SDS011;32805;53.556;9.944;2023-05-28T01:23:38;15.00;;;5.07;;
17141;SDS011;32805;53.556;9.944;2023-05-28T01:26:09;11.70;;;4.55;;
17141;SDS011;32805;53.556;9.944;2023-05-28T01:28:38;13.00;;;5.20;;
17141;SDS011;32805;53.556;9.944;2023-05-28T01:31:10;15.23;;;5.60;;
17141;SDS011;32805;53.556;9.944;2023-05-28T01:33:38;14.85;;;4.72;;
17141;SDS011;32805;53.556;9.944;2023-05-28T01:36:08;7.63;;;4.70;;
17141;SDS011;32805;53.556;9.944;2023-05-28T01:38:43;9.70;;;4.78;;
17141;SDS011;32805;53.556;9.944;2023-05-28T01:41:14;12.48;;;4.75;;
17141;SDS011;32805;53.556;9.944;2023-05-28T01:43:42;10.98;;;4.75;;
17141;SDS011;32805;53.556;9.944;2023-05-28T01:46:11;7.15;;;4.28;;
17141;SDS011;32805;53.556;9.944;2023-05-28T01:48:39;12.27;;;4.65;;
17141;SDS011;32805;53.556;9.944;2023-05-28T01:51:07;15.50;;;5.22;;
17141;SDS011;32805;53.556;9.944;2023-05-28T01:53:35;9.43;;;4.38;;
17141;SDS011;32805;53.556;9.944;2023-05-28T01:56:04;11.50;;;4.90;;
17141;SDS011;32805;53.556;9.944;2023-05-28T01:58:32;11.55;;;5.22;;
17141;SDS011;32805;53.556;9.944;2023-05-28T02:01:02;13.40;;;5.45;;
17141;SDS011;32805;53.556;9.944;2023-05-28T02:03:46;11.07;;;4.75;;
17141;SDS011;32805;53.556;9.944;2023-05-28T02:06:14;11.40;;;4.72;;
17141;SDS011;32805;53.556;9.944;2023-05-28T02:08:42;10.88;;;4.38;;
17141;SDS011;32805;53.556;9.944;2023-05-28T02:11:11;10.35;;;4.35;;
17141;SDS011;32805;53.556;9.944;2023-05-28T02:13:39;10.10;;;5.07;;
17141;SDS011;32805;53.556;9.944;2023-05-28T02:16:07;14.18;;;4.57;;
17141;SDS011;32805;53.556;9.944;2023-05-28T02:18:37;13.25;;;4.97;;
17141;SDS011;32805;53.556;9.944;2023-05-28T02:21:06;11.20;;;5.63;;
17141;SDS011;32805;53.556;9.944;2023-05-28T02:23:36;15.55;;;5.65;;
17141;SDS011;32805;53.556;9.944;2023-05-28T02:26:05;10.63;;;4.80;;
17141;SDS011;32805;53.556;9.944;2023-05-28T02:28:34;13.27;;;5.47;;
17141;SDS011;32805;53.556;9.944;2023-05-28T02:31:02;8.88;;;5.65;;
17141;SDS011;32805;53.556;9.944;2023-05-28T02:33:30;9.73;;;4.78;;
17141;SDS011;32805;53.556;9.944;2023-05-28T02:35:58;12.80;;;4.78;;
17141;SDS011;32805;53.556;9.944;2023-05-28T02:38:26;13.55;;;5.28;;
17141;SDS011;32805;53.556;9.944;2023-05-28T02:40:54;12.07;;;5.35;;
17141;SDS011;32805;53.556;9.944;2023-05-28T02:43:21;9.73;;;5.50;;
17141;SDS011;32805;53.556;9.944;2023-05-28T02:45:50;10.98;;;4.57;;
17141;SDS011;32805;53.556;9.944;2023-05-28T02:48:19;13.65;;;6.43;;
17141;SDS011;32805;53.556;9.944;2023-05-28T02:50:47;16.73;;;5.68;;
17141;SDS011;32805;53.556;9.944;2023-05-28T02:53:46;17.52;;;5.13;;
17141;SDS011;32805;53.556;9.944;2023-05-28T02:56:14;11.82;;;5.13;;
17141;SDS011;32805;53.556;9.944;2023-05-28T02:58:44;15.48;;;5.75;;
17141;SDS011;32805;53.556;9.944;2023-05-28T03:01:15;11.85;;;5.30;;
17141;SDS011;32805;53.556;9.944;2023-05-28T03:03:43;15.60;;;5.80;;
17141;SDS011;32805;53.556;9.944;2023-05-28T03:06:11;16.70;;;6.20;;
17141;SDS011;32805;53.556;9.944;2023-05-28T03:08:50;11.95;;;6.28;;
17141;SDS011;32805;53.556;9.944;2023-05-28T03:11:17;15.52;;;6.05;;
17141;SDS011;32805;53.556;9.944;2023-05-28T03:13:45;19.52;;;9.20;;
17141;SDS011;32805;53.556;9.944;2023-05-28T03:16:14;20.67;;;6.95;;
17141;SDS011;32805;53.556;9.944;2023-05-28T03:18:43;15.93;;;7.00;;
17141;SDS011;32805;53.556;9.944;2023-05-28T03:21:12;15.68;;;6.53;;
17141;SDS011;32805;53.556;9.944;2023-05-28T03:23:40;18.85;;;6.00;;
17141;SDS011;32805;53.556;9.944;2023-05-28T03:26:23;14.75;;;6.00;;
17141;SDS011;32805;53.556;9.944;2023-05-28T03:28:52;13.45;;;5.85;;
17141;SDS011;32805;53.556;9.944;2023-05-28T03:31:34;12.02;;;6.32;;
17141;SDS011;32805;53.556;9.944;2023-05-28T03:34:12;18.58;;;8.10;;
17141;SDS011;32805;53.556;9.944;2023-05-28T03:36:41;13.65;;;7.28;;
17141;SDS011;32805;53.556;9.944;2023-05-28T03:39:09;12.73;;;6.65;;
17141;SDS011;32805;53.556;9.944;2023-05-28T03:41:38;14.30;;;5.95;;
17141;SDS011;32805;53.556;9.944;2023-05-28T03:44:08;13.48;;;6.15;;
17141;SDS011;32805;53.556;9.944;2023-05-28T03:46:37;12.90;;;5.90;;
17141;SDS011;32805;53.556;9.944;2023-05-28T03:49:06;11.75;;;5.28;;
17141;SDS011;32805;53.556;9.944;2023-05-28T03:51:34;15.95;;;6.35;;
17141;SDS011;32805;53.556;9.944;2023-05-28T03:54:02;14.23;;;5.78;;
17141;SDS011;32805;53.556;9.944;2023-05-28T03:56:30;12.45;;;6.70;;
17141;SDS011;32805;53.556;9.944;2023-05-28T03:59:01;15.07;;;6.00;;
17141;SDS011;32805;53.556;9.944;2023-05-28T04:01:29;10.68;;;5.97;;
17141;SDS011;32805;53.556;9.944;2023-05-28T04:03:58;13.60;;;6.57;;
17141;SDS011;32805;53.556;9.944;2023-05-28T04:06:26;16.75;;;6.82;;
17141;SDS011;32805;53.556;9.944;2023-05-28T04:08:55;11.73;;;5.70;;
17141;SDS011;32805;53.556;9.944;2023-05-28T04:11:23;13.57;;;6.07;;
17141;SDS011;32805;53.556;9.944;2023-05-28T04:13:51;14.32;;;6.50;;
17141;SDS011;32805;53.556;9.944;2023-05-28T04:16:19;13.27;;;6.93;;
17141;SDS011;32805;53.556;9.944;2023-05-28T04:18:49;15.05;;;7.20;;
17141;SDS011;32805;53.556;9.944;2023-05-28T04:21:20;14.18;;;6.60;;
17141;SDS011;32805;53.556;9.944;2023-05-28T04:23:48;11.40;;;6.57;;
17141;SDS011;32805;53.556;9.944;2023-05-28T04:26:17;12.35;;;5.75;;
17141;SDS011;32805;53.556;9.944;2023-05-28T04:28:46;12.23;;;6.53;;
17141;SDS011;32805;53.556;9.944;2023-05-28T04:31:15;13.00;;;6.38;;
17141;SDS011;32805;53.556;9.944;2023-05-28T04:33:42;14.93;;;6.20;;
17141;SDS011;32805;53.556;9.944;2023-05-28T04:36:12;12.32;;;5.65;;
17141;SDS011;32805;53.556;9.944;2023-05-28T04:38:42;12.35;;;6.53;;
17141;SDS011;32805;53.556;9.944;2023-05-28T04:41:09;11.65;;;6.13;;
17141;SDS011;32805;53.556;9.944;2023-05-28T04:43:40;10.82;;;6.72;;
17141;SDS011;32805;53.556;9.944;2023-05-28T04:46:08;13.80;;;6.70;;
17141;SDS011;32805;53.556;9.944;2023-05-28T04:48:36;15.68;;;6.47;;
17141;SDS011;32805;53.556;9.944;2023-05-28T04:51:05;12.95;;;6.55;;
17141;SDS011;32805;53.556;9.944;2023-05-28T04:53:33;12.80;;;7.43;;
17141;SDS011;32805;53.556;9.944;2023-05-28T04:56:03;13.73;;;6.53;;
17141;SDS011;32805;53.556;9.944;2023-05-28T04:58:31;9.52;;;6.10;;
17141;SDS011;32805;53.556;9.944;2023-05-28T05:01:00;12.70;;;6.43;;
17141;SDS011;32805;53.556;9.944;2023-05-28T05:03:29;12.60;;;5.68;;
17141;SDS011;32805;53.556;9.944;2023-05-28T05:05:59;12.98;;;6.28;;
17141;SDS011;32805;53.556;9.944;2023-05-28T05:08:27;7.70;;;5.28;;
17141;SDS011;32805;53.556;9.944;2023-05-28T05:10:55;14.43;;;6.10;;
17141;SDS011;32805;53.556;9.944;2023-05-28T05:13:24;11.45;;;6.07;;
17141;SDS011;32805;53.556;9.944;2023-05-28T05:15:52;13.18;;;6.03;;
17141;SDS011;32805;53.556;9.944;2023-05-28T05:18:21;10.18;;;5.57;;
17141;SDS011;32805;53.556;9.944;2023-05-28T05:20:48;12.98;;;5.47;;
17141;SDS011;32805;53.556;9.944;2023-05-28T05:23:16;17.65;;;6.07;;
17141;SDS011;32805;53.556;9.944;2023-05-28T05:25:47;11.32;;;5.95;;
17141;SDS011;32805;53.556;9.944;2023-05-28T05:28:16;12.38;;;5.63;;
17141;SDS011;32805;53.556;9.944;2023-05-28T05:30:45;10.10;;;5.50;;
17141;SDS011;32805;53.556;9.944;2023-05-28T05:33:12;12.40;;;5.00;;
17141;SDS011;32805;53.556;9.944;2023-05-28T05:36:00;11.60;;;5.65;;
17141;SDS011;32805;53.556;9.944;2023-05-28T05:38:41;9.52;;;6.03;;
17141;SDS011;32805;53.556;9.944;2023-05-28T05:41:35;17.67;;;6.18;;
17141;SDS011;32805;53.556;9.944;2023-05-28T05:44:09;20.52;;;7.32;;
17141;SDS011;32805;53.556;9.944;2023-05-28T05:46:38;18.63;;;6.63;;
17141;SDS011;32805;53.556;9.944;2023-05-28T05:49:07;14.73;;;6.22;;
17141;SDS011;32805;53.556;9.944;2023-05-28T05:51:34;10.00;;;5.00;;
17141;SDS011;32805;53.556;9.944;2023-05-28T05:54:02;9.88;;;5.50;;
17141;SDS011;32805;53.556;9.944;2023-05-28T05:56:30;10.95;;;6.10;;
17141;SDS011;32805;53.556;9.944;2023-05-28T05:58:58;13.07;;;5.35;;
17141;SDS011;32805;53.556;9.944;2023-05-28T06:01:26;13.23;;;6.00;;
17141;SDS011;32805;53.556;9.944;2023-05-28T06:03:57;12.32;;;5.43;;
17141;SDS011;32805;53.556;9.944;2023-05-28T06:06:48;11.02;;;5.35;;
17141;SDS011;32805;53.556;9.944;2023-05-28T06:09:43;12.02;;;5.40;;
17141;SDS011;32805;53.556;9.944;2023-05-28T06:12:18;12.63;;;5.97;;
17141;SDS011;32805;53.556;9.944;2023-05-28T06:14:46;11.07;;;5.63;;
17141;SDS011;32805;53.556;9.944;2023-05-28T06:17:16;12.80;;;6.43;;
17141;SDS011;32805;53.556;9.944;2023-05-28T06:19:45;16.20;;;6.70;;
17141;SDS011;32805;53.556;9.944;2023-05-28T06:22:15;11.52;;;5.97;;
17141;SDS011;32805;53.556;9.944;2023-05-28T06:24:43;13.50;;;5.53;;
17141;SDS011;32805;53.556;9.944;2023-05-28T06:27:12;12.60;;;6.93;;
17141;SDS011;32805;53.556;9.944;2023-05-28T06:29:40;14.80;;;6.15;;
17141;SDS011;32805;53.556;9.944;2023-05-28T06:32:08;11.90;;;6.68;;
17141;SDS011;32805;53.556;9.944;2023-05-28T06:34:36;15.88;;;6.63;;
17141;SDS011;32805;53.556;9.944;2023-05-28T06:37:05;13.30;;;6.85;;
17141;SDS011;32805;53.556;9.944;2023-05-28T06:39:33;14.38;;;7.93;;
17141;SDS011;32805;53.556;9.944;2023-05-28T06:42:02;18.63;;;7.28;;
17141;SDS011;32805;53.556;9.944;2023-05-28T06:44:37;14.00;;;6.15;;
17141;SDS011;32805;53.556;9.944;2023-05-28T06:47:11;12.05;;;5.95;;
17141;SDS011;32805;53.556;9.944;2023-05-28T06:49:39;9.95;;;5.57;;
17141;SDS011;32805;53.556;9.944;2023-05-28T06:52:08;12.65;;;6.20;;
17141;SDS011;32805;53.556;9.944;2023-05-28T06:54:36;15.25;;;6.07;;
17141;SDS011;32805;53.556;9.944;2023-05-28T06:57:05;10.57;;;5.60;;
17141;SDS011;32805;53.556;9.944;2023-05-28T06:59:56;13.98;;;5.47;;
17141;SDS011;32805;53.556;9.944;2023-05-28T07:02:44;16.08;;;5.43;;
17141;SDS011;32805;53.556;9.944;2023-05-28T07:05:38;13.00;;;5.15;;
17141;SDS011;32805;53.556;9.944;2023-05-28T07:08:09;9.93;;;5.28;;
17141;SDS011;32805;53.556;9.944;2023-05-28T07:10:37;10.77;;;5.63;;
17141;SDS011;32805;53.556;9.944;2023-05-28T07:13:05;15.32;;;5.90;;
17141;SDS011;32805;53.556;9.944;2023-05-28T07:15:33;10.35;;;4.75;;
17141;SDS011;32805;53.556;9.944;2023-05-28T07:18:05;14.73;;;5.75;;
17141;SDS011;32805;53.556;9.944;2023-05-28T07:20:33;11.30;;;5.25;;
17141;SDS011;32805;53.556;9.944;2023-05-28T07:23:11;9.98;;;4.40;;
17141;SDS011;32805;53.556;9.944;2023-05-28T07:25:41;15.52;;;5.10;;
17141;SDS011;32805;53.556;9.944;2023-05-28T07:28:10;9.70;;;4.40;;
17141;SDS011;32805;53.556;9.944;2023-05-28T07:30:37;11.10;;;5.40;;
17141;SDS011;32805;53.556;9.944;2023-05-28T07:33:06;10.73;;;4.85;;
17141;SDS011;32805;53.556;9.944;2023-05-28T07:35:35;11.95;;;4.75;;
17141;SDS011;32805;53.556;9.944;2023-05-28T07:38:03;16.00;;;4.63;;
17141;SDS011;32805;53.556;9.944;2023-05-28T07:40:32;9.35;;;4.40;;
17141;SDS011;32805;53.556;9.944;2023-05-28T07:43:15;13.38;;;4.65;;
17141;SDS011;32805;53.556;9.944;2023-05-28T07:45:43;15.32;;;5.65;;
17141;SDS011;32805;53.556;9.944;2023-05-28T07:48:11;14.57;;;5.00;;
17141;SDS011;32805;53.556;9.944;2023-05-28T07:50:52;12.88;;;4.10;;
17141;SDS011;32805;53.556;9.944;2023-05-28T07:53:39;12.95;;;7.30;;
17141;SDS011;32805;53.556;9.944;2023-05-28T07:56:12;10.85;;;4.55;;
17141;SDS011;32805;53.556;9.944;2023-05-28T07:58:42;11.52;;;5.25;;
17141;SDS011;32805;53.556;9.944;2023-05-28T08:01:10;10.35;;;4.63;;
17141;SDS011;32805;53.556;9.944;2023-05-28T08:03:38;7.70;;;4.68;;
17141;SDS011;32805;53.556;9.944;2023-05-28T08:06:07;11.80;;;4.15;;
17141;SDS011;32805;53.556;9.944;2023-05-28T08:08:37;11.80;;;4.32;;
17141;SDS011;32805;53.556;9.944;2023-05-28T08:11:07;13.93;;;5.00;;
17141;SDS011;32805;53.556;9.944;2023-05-28T08:13:39;13.35;;;4.30;;
17141;SDS011;32805;53.556;9.944;2023-05-28T08:16:09;15.52;;;4.47;;
17141;SDS011;32805;53.556;9.944;2023-05-28T08:19:08;8.52;;;4.10;;
17141;SDS011;32805;53.556;9.944;2023-05-28T08:21:36;13.13;;;4.50;;
17141;SDS011;32805;53.556;9.944;2023-05-28T08:24:05;7.63;;;3.97;;
17141;SDS011;32805;53.556;9.944;2023-05-28T08:26:35;12.60;;;4.78;;
17141;SDS011;32805;53.556;9.944;2023-05-28T08:29:05;9.63;;;4.18;;
17141;SDS011;32805;53.556;9.944;2023-05-28T08:31:38;10.45;;;4.10;;
17141;SDS011;32805;53.556;9.944;2023-05-28T08:34:12;11.88;;;4.78;;
17141;SDS011;32805;53.556;9.944;2023-05-28T08:36:42;8.73;;;3.70;;
17141;SDS011;32805;53.556;9.944;2023-05-28T08:39:14;9.55;;;4.25;;
17141;SDS011;32805;53.556;9.944;2023-05-28T08:41:44;11.43;;;3.83;;
17141;SDS011;32805;53.556;9.944;2023-05-28T08:44:14;12.25;;;4.63;;
17141;SDS011;32805;53.556;9.944;2023-05-28T08:46:41;9.95;;;3.80;;
17141;SDS011;32805;53.556;9.944;2023-05-28T08:49:30;9.73;;;3.33;;
17141;SDS011;32805;53.556;9.944;2023-05-28T08:52:01;9.13;;;3.13;;
17141;SDS011;32805;53.556;9.944;2023-05-28T08:54:32;8.75;;;3.72;;
17141;SDS011;32805;53.556;9.944;2023-05-28T08:57:01;12.50;;;4.18;;
17141;SDS011;32805;53.556;9.944;2023-05-28T08:59:35;9.50;;;3.20;;
17141;SDS011;32805;53.556;9.944;2023-05-28T09:02:04;9.82;;;3.20;;
17141;SDS011;32805;53.556;9.944;2023-05-28T09:04:32;9.73;;;3.28;;
17141;SDS011;32805;53.556;9.944;2023-05-28T09:07:00;5.53;;;2.88;;
17141;SDS011;32805;53.556;9.944;2023-05-28T09:09:49;8.93;;;3.25;;
17141;SDS011;32805;53.556;9.944;2023-05-28T09:12:19;7.63;;;3.40;;
17141;SDS011;32805;53.556;9.944;2023-05-28T09:14:55;9.10;;;3.17;;
17141;SDS011;32805;53.556;9.944;2023-05-28T09:17:34;6.97;;;3.03;;
17141;SDS011;32805;53.556;9.944;2023-05-28T09:20:09;10.63;;;3.22;;
17141;SDS011;32805;53.556;9.944;2023-05-28T09:22:40;10.25;;;3.28;;
17141;SDS011;32805;53.556;9.944;2023-05-28T09:25:21;7.40;;;2.97;;
17141;SDS011;32805;53.556;9.944;2023-05-28T09:28:00;7.60;;;2.90;;
17141;SDS011;32805;53.556;9.944;2023-05-28T09:30:33;6.07;;;2.88;;
17141;SDS011;32805;53.556;9.944;2023-05-28T09:33:02;7.20;;;2.78;;
17141;SDS011;32805;53.556;9.944;2023-05-28T09:35:31;10.20;;;2.88;;
17141;SDS011;32805;53.556;9.944;2023-05-28T09:38:00;9.57;;;4.53;;
17141;SDS011;32805;53.556;9.944;2023-05-28T09:40:28;6.88;;;3.03;;
17141;SDS011;32805;53.556;9.944;2023-05-28T09:42:56;6.60;;;3.28;;
17141;SDS011;32805;53.556;9.944;2023-05-28T09:45:24;7.95;;;3.50;;
17141;SDS011;32805;53.556;9.944;2023-05-28T09:47:54;6.38;;;3.42;;
17141;SDS011;32805;53.556;9.944;2023-05-28T09:50:22;9.65;;;3.40;;
17141;SDS011;32805;53.556;9.944;2023-05-28T09:52:50;7.28;;;3.63;;
17141;SDS011;32805;53.556;9.944;2023-05-28T09:55:23;7.68;;;3.28;;
17141;SDS011;32805;53.556;9.944;2023-05-28T09:57:54;8.10;;;4.20;;
17141;SDS011;32805;53.556;9.944;2023-05-28T10:00:29;8.30;;;3.53;;
17141;SDS011;32805;53.556;9.944;2023-05-28T10:03:08;9.95;;;3.63;;
17141;SDS011;32805;53.556;9.944;2023-05-28T10:05:42;8.43;;;3.47;;
17141;SDS011;32805;53.556;9.944;2023-05-28T10:08:11;7.20;;;2.92;;
17141;SDS011;32805;53.556;9.944;2023-05-28T10:10:43;8.43;;;3.30;;
17141;SDS011;32805;53.556;9.944;2023-05-28T10:13:12;6.55;;;3.40;;
17141;SDS011;32805;53.556;9.944;2023-05-28T10:15:41;7.68;;;3.47;;
17141;SDS011;32805;53.556;9.944;2023-05-28T10:18:10;11.27;;;4.15;;
17141;SDS011;32805;53.556;9.944;2023-05-28T10:20:41;6.07;;;3.47;;
17141;SDS011;32805;53.556;9.944;2023-05-28T10:23:09;6.88;;;3.60;;
17141;SDS011;32805;53.556;9.944;2023-05-28T10:25:37;8.27;;;3.78;;
17141;SDS011;32805;53.556;9.944;2023-05-28T10:28:05;8.15;;;3.58;;
17141;SDS011;32805;53.556;9.944;2023-05-28T10:30:33;8.45;;;4.00;;
17141;SDS011;32805;53.556;9.944;2023-05-28T10:33:05;6.65;;;3.45;;
17141;SDS011;32805;53.556;9.944;2023-05-28T10:35:37;6.90;;;3.63;;
17141;SDS011;32805;53.556;9.944;2023-05-28T10:38:17;9.23;;;3.78;;
17141;SDS011;32805;53.556;9.944;2023-05-28T10:40:45;7.70;;;3.63;;
17141;SDS011;32805;53.556;9.944;2023-05-28T10:46:08;7.55;;;3.28;;
17141;SDS011;32805;53.556;9.944;2023-05-28T10:48:40;7.82;;;3.30;;
17141;SDS011;32805;53.556;9.944;2023-05-28T10:51:09;7.13;;;3.13;;
17141;SDS011;32805;53.556;9.944;2023-05-28T10:53:38;9.50;;;3.97;;
17141;SDS011;32805;53.556;9.944;2023-05-28T10:56:07;11.25;;;3.70;;
17141;SDS011;32805;53.556;9.944;2023-05-28T10:58:35;7.13;;;2.83;;
17141;SDS011;32805;53.556;9.944;2023-05-28T11:01:04;9.95;;;3.42;;
17141;SDS011;32805;53.556;9.944;2023-05-28T11:03:46;6.75;;;3.25;;
17141;SDS011;32805;53.556;9.944;2023-05-28T11:06:23;8.20;;;3.58;;
17141;SDS011;32805;53.556;9.944;2023-05-28T11:08:51;8.82;;;3.15;;
17141;SDS011;32805;53.556;9.944;2023-05-28T11:11:19;6.57;;;3.53;;
17141;SDS011;32805;53.556;9.944;2023-05-28T11:13:48;10.50;;;3.70;;
17141;SDS011;32805;53.556;9.944;2023-05-28T11:16:16;8.73;;;3.35;;
17141;SDS011;32805;53.556;9.944;2023-05-28T11:19:00;8.52;;;3.83;;
17141;SDS011;32805;53.556;9.944;2023-05-28T11:21:30;6.63;;;3.92;;
17141;SDS011;32805;53.556;9.944;2023-05-28T11:24:00;7.47;;;3.65;;
17141;SDS011;32805;53.556;9.944;2023-05-28T11:26:28;7.20;;;3.67;;
17141;SDS011;32805;53.556;9.944;2023-05-28T11:28:57;6.00;;;3.40;;
17141;SDS011;32805;53.556;9.944;2023-05-28T11:31:25;9.45;;;3.83;;
17141;SDS011;32805;53.556;9.944;2023-05-28T11:33:54;9.05;;;3.63;;
17141;SDS011;32805;53.556;9.944;2023-05-28T11:36:22;7.28;;;3.45;;
17141;SDS011;32805;53.556;9.944;2023-05-28T11:39:01;7.00;;;3.33;;
17141;SDS011;32805;53.556;9.944;2023-05-28T11:41:29;8.00;;;4.20;;
17141;SDS011;32805;53.556;9.944;2023-05-28T11:43:57;7.45;;;3.40;;
17141;SDS011;32805;53.556;9.944;2023-05-28T11:46:25;5.22;;;3.30;;
17141;SDS011;32805;53.556;9.944;2023-05-28T11:48:53;8.73;;;3.75;;
17141;SDS011;32805;53.556;9.944;2023-05-28T11:51:21;9.85;;;3.67;;
17141;SDS011;32805;53.556;9.944;2023-05-28T11:53:49;7.65;;;3.63;;
17141;SDS011;32805;53.556;9.944;2023-05-28T11:56:18;7.82;;;3.88;;
17141;SDS011;32805;53.556;9.944;2023-05-28T11:58:46;8.95;;;3.92;;
17141;SDS011;32805;53.556;9.944;2023-05-28T12:01:15;5.38;;;3.53;;
17141;SDS011;32805;53.556;9.944;2023-05-28T12:03:44;7.50;;;3.75;;
17141;SDS011;32805;53.556;9.944;2023-05-28T12:06:12;9.25;;;3.80;;
17141;SDS011;32805;53.556;9.944;2023-05-28T12:08:54;9.40;;;3.72;;
17141;SDS011;32805;53.556;9.944;2023-05-28T12:11:26;8.15;;;4.30;;
17141;SDS011;32805;53.556;9.944;2023-05-28T12:13:54;6.15;;;3.40;;
17141;SDS011;32805;53.556;9.944;2023-05-28T12:16:22;7.65;;;3.50;;
17141;SDS011;32805;53.556;9.944;2023-05-28T12:18:51;9.15;;;4.32;;
17141;SDS011;32805;53.556;9.944;2023-05-28T12:21:27;8.57;;;3.50;;
17141;SDS011;32805;53.556;9.944;2023-05-28T12:23:55;5.80;;;3.40;;
17141;SDS011;32805;53.556;9.944;2023-05-28T12:26:23;5.75;;;3.45;;
17141;SDS011;32805;53.556;9.944;2023-05-28T12:28:52;6.80;;;3.42;;
17141;SDS011;32805;53.556;9.944;2023-05-28T12:31:19;7.97;;;3.78;;
17141;SDS011;32805;53.556;9.944;2023-05-28T12:33:54;7.13;;;3.50;;
17141;SDS011;32805;53.556;9.944;2023-05-28T12:36:22;7.35;;;3.42;;
17141;SDS011;32805;53.556;9.944;2023-05-28T12:38:50;8.43;;;3.80;;
17141;SDS011;32805;53.556;9.944;2023-05-28T12:41:17;9.75;;;3.55;;
17141;SDS011;32805;53.556;9.944;2023-05-28T12:43:45;5.93;;;3.67;;
17141;SDS011;32805;53.556;9.944;2023-05-28T12:46:14;9.18;;;3.47;;
17141;SDS011;32805;53.556;9.944;2023-05-28T12:48:42;7.05;;;2.90;;
17141;SDS011;32805;53.556;9.944;2023-05-28T12:51:10;8.55;;;2.90;;
17141;SDS011;32805;53.556;9.944;2023-05-28T12:53:39;6.05;;;3.40;;
17141;SDS011;32805;53.556;9.944;2023-05-28T12:56:06;6.10;;;3.25;;
17141;SDS011;32805;53.556;9.944;2023-05-28T12:58:34;7.63;;;3.55;;
17141;SDS011;32805;53.556;9.944;2023-05-28T13:01:03;7.93;;;3.67;;
17141;SDS011;32805;53.556;9.944;2023-05-28T13:03:32;8.00;;;3.22;;
17141;SDS011;32805;53.556;9.944;2023-05-28T13:06:00;7.28;;;3.47;;
17141;SDS011;32805;53.556;9.944;2023-05-28T13:08:28;7.10;;;3.75;;
17141;SDS011;32805;53.556;9.944;2023-05-28T13:10:55;8.30;;;3.97;;
17141;SDS011;32805;53.556;9.944;2023-05-28T13:13:23;5.82;;;3.47;;
17141;SDS011;32805;53.556;9.944;2023-05-28T13:15:51;5.65;;;3.22;;
17141;SDS011;32805;53.556;9.944;2023-05-28T13:18:19;5.07;;;3.00;;
17141;SDS011;32805;53.556;9.944;2023-05-28T13:20:48;9.75;;;3.47;;
17141;SDS011;32805;53.556;9.944;2023-05-28T13:23:16;4.60;;;3.05;;
17141;SDS011;32805;53.556;9.944;2023-05-28T13:25:44;6.40;;;3.70;;
17141;SDS011;32805;53.556;9.944;2023-05-28T13:28:11;7.53;;;3.15;;
17141;SDS011;32805;53.556;9.944;2023-05-28T13:30:39;5.88;;;3.47;;
17141;SDS011;32805;53.556;9.944;2023-05-28T13:33:07;8.98;;;4.28;;
17141;SDS011;32805;53.556;9.944;2023-05-28T13:35:35;5.10;;;3.30;;
17141;SDS011;32805;53.556;9.944;2023-05-28T13:38:04;6.57;;;3.42;;
17141;SDS011;32805;53.556;9.944;2023-05-28T13:40:32;7.97;;;3.35;;
17141;SDS011;32805;53.556;9.944;2023-05-28T13:43:00;5.93;;;3.20;;
17141;SDS011;32805;53.556;9.944;2023-05-28T13:45:28;4.63;;;2.95;;
17141;SDS011;32805;53.556;9.944;2023-05-28T13:47:57;7.50;;;3.47;;
17141;SDS011;32805;53.556;9.944;2023-05-28T13:50:26;6.38;;;3.17;;
17141;SDS011;32805;53.556;9.944;2023-05-28T13:52:53;4.65;;;3.00;;
17141;SDS011;32805;53.556;9.944;2023-05-28T13:55:24;8.98;;;3.45;;
17141;SDS011;32805;53.556;9.944;2023-05-28T13:57:52;4.63;;;2.80;;
17141;SDS011;32805;53.556;9.944;2023-05-28T14:00:20;6.45;;;3.15;;
17141;SDS011;32805;53.556;9.944;2023-05-28T14:03:04;5.43;;;2.92;;
17141;SDS011;32805;53.556;9.944;2023-05-28T14:05:33;5.68;;;3.13;;
17141;SDS011;32805;53.556;9.944;2023-05-28T14:08:02;5.05;;;3.05;;
17141;SDS011;32805;53.556;9.944;2023-05-28T14:10:32;4.20;;;2.85;;
17141;SDS011;32805;53.556;9.944;2023-05-28T14:13:00;9.77;;;3.35;;
17141;SDS011;32805;53.556;9.944;2023-05-28T14:15:27;5.60;;;2.92;;
17141;SDS011;32805;53.556;9.944;2023-05-28T14:17:55;7.13;;;3.70;;
17141;SDS011;32805;53.556;9.944;2023-05-28T14:20:23;5.60;;;3.20;;
17141;SDS011;32805;53.556;9.944;2023-05-28T14:22:51;5.20;;;3.40;;
17141;SDS011;32805;53.556;9.944;2023-05-28T14:25:19;5.35;;;3.42;;
17141;SDS011;32805;53.556;9.944;2023-05-28T14:27:48;5.55;;;3.00;;
17141;SDS011;32805;53.556;9.944;2023-05-28T14:30:35;6.05;;;3.28;;
17141;SDS011;32805;53.556;9.944;2023-05-28T14:33:03;4.28;;;2.90;;
17141;SDS011;32805;53.556;9.944;2023-05-28T14:35:31;4.85;;;3.13;;
17141;SDS011;32805;53.556;9.944;2023-05-28T14:37:59;4.85;;;3.13;;
17141;SDS011;32805;53.556;9.944;2023-05-28T14:40:27;3.67;;;2.70;;
17141;SDS011;32805;53.556;9.944;2023-05-28T14:42:56;4.93;;;3.15;;
17141;SDS011;32805;53.556;9.944;2023-05-28T14:45:23;4.22;;;2.75;;
17141;SDS011;32805;53.556;9.944;2023-05-28T14:47:51;5.57;;;3.25;;
17141;SDS011;32805;53.556;9.944;2023-05-28T14:50:19;5.03;;;3.33;;
17141;SDS011;32805;53.556;9.944;2023-05-28T14:52:47;5.10;;;3.10;;
17141;SDS011;32805;53.556;9.944;2023-05-28T14:55:15;5.20;;;3.35;;
17141;SDS011;32805;53.556;9.944;2023-05-28T14:57:46;9.63;;;6.13;;
17141;SDS011;32805;53.556;9.944;2023-05-28T15:00:16;4.75;;;2.85;;
17141;SDS011;32805;53.556;9.944;2023-05-28T15:02:44;5.15;;;3.75;;